createdAt,value
2023-05-25T00:01:03.149Z,12.40
2023-05-25T00:06:05.797Z,12.42
2023-05-25T00:11:07.728Z,12.44
2023-05-25T00:16:09.484Z,12.44
2023-05-25T00:21:11.980Z,12.42
2023-05-25T00:26:13.722Z,12.42
2023-05-25T00:31:15.705Z,12.41
2023-05-25T00:36:18.200Z,12.40
2023-05-25T00:41:20.940Z,12.39
2023-05-25T00:46:23.866Z,12.39
2023-05-25T00:51:26.462Z,12.42
2023-05-25T00:56:33.130Z,12.43
2023-05-25T01:01:40.295Z,12.42
2023-05-25T01:06:47.150Z,12.34
2023-05-25T01:11:51.374Z,12.35
2023-05-25T01:16:55.358Z,12.36
2023-05-25T01:22:08.102Z,12.33
2023-05-25T01:27:21.223Z,12.26
2023-05-25T01:32:25.004Z,12.30
2023-05-25T01:37:27.863Z,12.32
2023-05-25T01:42:31.858Z,12.33
2023-05-25T01:48:11.683Z,12.32
2023-05-25T01:53:23.907Z,12.34
2023-05-25T01:58:27.447Z,12.35
2023-05-25T02:03:29.333Z,12.34
2023-05-25T02:08:31.278Z,12.29
2023-05-25T02:13:34.956Z,12.28
2023-05-25T02:18:37.234Z,12.28
2023-05-25T02:23:39.057Z,12.26
2023-05-25T02:28:41.271Z,12.23
2023-05-25T02:33:43.087Z,12.18
2023-05-25T02:38:45.614Z,12.07
2023-05-25T02:43:48.144Z,12.07
2023-05-25T02:48:50.688Z,12.10
2023-05-25T02:53:53.309Z,12.09
2023-05-25T02:58:55.529Z,12.11
2023-05-25T03:04:15.616Z,12.14
2023-05-25T03:09:18.586Z,12.17
2023-05-25T03:14:22.565Z,12.22
2023-05-25T03:19:29.671Z,12.27
2023-05-25T03:24:31.493Z,12.31
2023-05-25T03:29:35.945Z,12.30
2023-05-25T03:34:38.396Z,12.29
2023-05-25T03:39:40.547Z,12.31
2023-05-25T03:44:42.898Z,12.18
2023-05-25T03:49:45.172Z,12.09
2023-05-25T03:54:48.055Z,12.02
2023-05-25T03:59:50.124Z,11.92
2023-05-25T04:07:13.464Z,11.66
2023-05-25T04:12:15.304Z,11.50
2023-05-25T04:17:19.096Z,11.48
2023-05-25T04:22:21.405Z,11.42
2023-05-25T04:27:23.268Z,11.44
2023-05-25T04:32:29.872Z,11.42
2023-05-25T04:38:12.452Z,11.41
2023-05-25T04:43:18.180Z,11.34
2023-05-25T04:48:21.615Z,11.39
2023-05-25T04:53:23.702Z,11.41
2023-05-25T04:58:26.191Z,11.43
2023-05-25T05:03:38.140Z,11.43
2023-05-25T05:08:41.802Z,11.37
2023-05-25T05:13:48.231Z,11.41
2023-05-25T05:18:50.660Z,11.48
2023-05-25T05:23:52.583Z,11.52
2023-05-25T05:28:54.663Z,11.60
2023-05-25T05:33:57.436Z,11.67
2023-05-25T05:39:01.059Z,11.70
2023-05-25T05:44:03.696Z,11.65
2023-05-25T05:49:05.458Z,11.72
2023-05-25T05:54:07.225Z,11.88
2023-05-25T05:59:11.806Z,11.93
2023-05-25T06:04:15.032Z,11.84
2023-05-25T06:09:17.806Z,11.79
2023-05-25T06:14:19.658Z,11.72
2023-05-25T06:19:21.529Z,11.56
2023-05-25T06:24:23.284Z,11.42
2023-05-25T06:29:25.246Z,11.43
2023-05-25T06:34:27.234Z,11.52
2023-05-25T06:39:29.212Z,11.57
2023-05-25T06:44:31.103Z,11.59
2023-05-25T06:49:36.734Z,11.70
2023-05-25T06:54:38.553Z,11.70
2023-05-25T06:59:40.468Z,11.78
2023-05-25T07:04:42.444Z,11.68
2023-05-25T07:09:44.334Z,11.77
2023-05-25T07:14:48.385Z,11.95
2023-05-25T07:19:50.123Z,12.19
2023-05-25T07:24:51.834Z,12.38
2023-05-25T07:29:53.921Z,12.46
2023-05-25T07:34:55.987Z,12.48
2023-05-25T07:39:57.983Z,12.38
2023-05-25T07:45:01.298Z,12.57
2023-05-25T07:50:03.244Z,12.63
2023-05-25T07:55:09.002Z,12.75
2023-05-25T08:00:12.782Z,12.67
2023-05-25T08:05:17.282Z,12.67
2023-05-25T08:10:19.407Z,12.61
2023-05-25T08:15:21.391Z,12.63
2023-05-25T08:20:25.237Z,12.62
2023-05-25T08:25:26.985Z,13.01
2023-05-25T08:30:29.264Z,13.52
2023-05-25T08:35:31.082Z,13.76
2023-05-25T08:40:32.810Z,13.93
2023-05-25T08:45:36.712Z,13.84
2023-05-25T08:50:41.366Z,13.71
2023-05-25T08:55:44.066Z,13.32
2023-05-25T09:00:55.811Z,13.25
2023-05-25T09:05:58.170Z,13.34
2023-05-25T09:11:02.422Z,13.54
2023-05-25T09:16:04.906Z,13.61
2023-05-25T09:21:06.615Z,13.55
2023-05-25T09:26:08.940Z,13.83
2023-05-25T09:31:10.973Z,14.20
2023-05-25T09:36:15.402Z,14.36
2023-05-25T09:41:17.213Z,14.37
2023-05-25T09:46:19.037Z,14.47
2023-05-25T09:51:21.758Z,14.50
2023-05-25T09:56:24.725Z,14.60
2023-05-25T10:01:27.358Z,14.88
2023-05-25T10:06:29.505Z,15.15
2023-05-25T10:11:33.920Z,15.54
2023-05-25T10:16:41.449Z,15.39
2023-05-25T10:22:14.082Z,15.13
2023-05-25T10:32:44.517Z,15.59
2023-05-25T10:37:47.732Z,15.85
2023-05-25T10:42:52.297Z,15.78
2023-05-25T10:47:54.134Z,15.69
2023-05-25T10:53:00.142Z,15.72
2023-05-25T10:58:10.482Z,16.08
2023-05-25T11:03:12.350Z,15.90
2023-05-25T11:08:17.764Z,15.74
2023-05-25T11:13:31.652Z,16.15
2023-05-25T11:18:41.637Z,16.36
2023-05-25T11:24:00.081Z,16.27
2023-05-25T11:29:15.938Z,16.59
2023-05-25T11:34:18.807Z,16.69
2023-05-25T11:39:23.406Z,16.53
2023-05-25T11:44:33.915Z,16.40
2023-05-25T11:49:42.040Z,16.19
2023-05-25T11:54:44.799Z,15.84
2023-05-25T12:00:02.054Z,15.60
2023-05-25T12:05:08.500Z,15.72
2023-05-25T12:10:13.078Z,15.89
2023-05-25T12:15:25.816Z,15.81
2023-05-25T12:20:27.776Z,15.90
2023-05-25T12:25:46.090Z,16.06
2023-05-25T12:30:52.041Z,16.07
2023-05-25T12:35:55.776Z,16.30
2023-05-25T12:41:07.967Z,16.35
2023-05-25T12:46:10.075Z,16.27
2023-05-25T12:51:12.310Z,16.23
2023-05-25T12:56:14.076Z,16.07
2023-05-25T13:01:16.092Z,15.95
2023-05-25T13:06:18.078Z,15.92
2023-05-25T13:11:19.795Z,15.98
2023-05-25T13:16:21.623Z,15.96
2023-05-25T13:21:23.617Z,16.15
2023-05-25T13:26:25.765Z,16.35
2023-05-25T13:31:27.821Z,16.47
2023-05-25T13:36:29.971Z,16.54
2023-05-25T13:41:31.761Z,16.84
2023-05-25T13:46:35.386Z,17.16
2023-05-25T13:51:38.356Z,17.15
2023-05-25T13:56:42.425Z,17.27
2023-05-25T14:01:44.356Z,17.33
2023-05-25T14:06:46.527Z,17.37
2023-05-25T14:11:48.500Z,17.29
2023-05-25T14:16:50.249Z,17.06
2023-05-25T14:22:11.220Z,17.07
2023-05-25T14:27:21.285Z,17.02
2023-05-25T14:32:22.997Z,16.83
2023-05-25T14:37:24.795Z,16.72
2023-05-25T14:42:27.147Z,16.72
2023-05-25T14:47:28.948Z,16.92
2023-05-25T14:52:30.800Z,17.04
2023-05-25T14:57:32.534Z,16.92
2023-05-25T15:02:34.368Z,16.64
2023-05-25T15:07:36.278Z,16.35
2023-05-25T15:12:38.054Z,16.25
2023-05-25T15:17:40.138Z,16.16
2023-05-25T15:22:42.036Z,16.22
2023-05-25T15:27:43.777Z,16.37
2023-05-25T15:32:45.534Z,16.53
2023-05-25T15:37:48.334Z,16.50
2023-05-25T15:42:50.368Z,16.49
2023-05-25T15:47:52.217Z,16.40
2023-05-25T15:52:54.073Z,16.23
2023-05-25T15:57:55.830Z,15.98
2023-05-25T16:02:58.283Z,15.75
2023-05-25T16:08:00.100Z,15.64
2023-05-25T16:13:01.887Z,15.61
2023-05-25T16:18:03.885Z,15.76
2023-05-25T16:23:06.451Z,15.98
2023-05-25T16:28:08.135Z,15.93
2023-05-25T16:33:09.944Z,15.94
2023-05-25T16:38:11.674Z,15.94
2023-05-25T16:43:13.381Z,15.90
2023-05-25T16:48:15.431Z,15.87
2023-05-25T16:53:17.285Z,15.80
2023-05-25T16:58:19.025Z,15.67
2023-05-25T17:03:20.734Z,15.61
2023-05-25T17:08:22.604Z,15.55
2023-05-25T17:13:24.291Z,15.46
2023-05-25T17:18:26.966Z,15.32
2023-05-25T17:23:28.803Z,15.15
2023-05-25T17:28:32.870Z,15.09
2023-05-25T17:33:34.639Z,15.07
2023-05-25T17:38:38.100Z,15.03
2023-05-25T17:43:39.800Z,14.99
2023-05-25T17:48:41.458Z,14.97
2023-05-25T17:53:43.150Z,14.95
2023-05-25T17:58:47.642Z,14.87
2023-05-25T18:03:53.953Z,14.81
2023-05-25T18:08:56.655Z,14.69
2023-05-25T18:13:58.446Z,14.58
2023-05-25T18:19:00.222Z,14.55
2023-05-25T18:24:01.923Z,14.53
2023-05-25T18:29:03.715Z,14.52
2023-05-25T18:34:06.918Z,14.51
2023-05-25T18:39:08.700Z,14.46
2023-05-25T18:44:10.492Z,14.40
2023-05-25T18:49:12.677Z,14.34
2023-05-25T18:54:14.397Z,14.30
2023-05-25T18:59:16.508Z,14.26
2023-05-25T19:04:18.421Z,14.21
2023-05-25T19:09:20.158Z,14.16
2023-05-25T19:14:21.890Z,14.10
2023-05-25T19:19:23.607Z,14.03
2023-05-25T19:24:25.311Z,13.99
2023-05-25T19:29:27.125Z,13.93
2023-05-25T19:34:28.863Z,13.83
2023-05-25T19:39:31.787Z,13.76
2023-05-25T19:44:33.468Z,13.68
2023-05-25T19:49:35.219Z,13.61
2023-05-25T19:54:38.078Z,13.57
2023-05-25T19:59:39.847Z,13.55
2023-05-25T20:04:41.520Z,13.53
2023-05-25T20:09:44.076Z,13.51
2023-05-25T20:14:45.754Z,13.48
2023-05-25T20:19:47.502Z,13.41
2023-05-25T20:24:50.167Z,13.32
2023-05-25T20:29:51.950Z,13.22
2023-05-25T20:34:53.646Z,13.17
2023-05-25T20:39:55.618Z,13.14
2023-05-25T20:45:00.165Z,13.11
2023-05-25T20:50:01.911Z,13.06
2023-05-25T20:55:03.940Z,13.01
2023-05-25T21:00:06.749Z,12.97
2023-05-25T21:05:09.063Z,12.96
2023-05-25T21:10:11.513Z,12.95
2023-05-25T21:15:19.118Z,12.97
2023-05-25T21:20:21.109Z,12.98
2023-05-25T21:25:22.998Z,12.99
2023-05-25T21:30:24.776Z,13.00
2023-05-25T21:35:26.597Z,13.02
2023-05-25T21:40:28.688Z,13.05
2023-05-25T21:45:31.240Z,13.09
2023-05-25T21:50:33.070Z,13.11
2023-05-25T21:55:54.837Z,13.13
2023-05-25T22:00:56.655Z,13.12
2023-05-25T22:05:58.565Z,13.13
2023-05-25T22:11:00.314Z,13.15
2023-05-25T22:16:02.077Z,13.15
2023-05-25T22:21:03.878Z,13.16
2023-05-25T22:26:05.828Z,13.21
2023-05-25T22:31:07.625Z,13.27
2023-05-25T22:36:09.376Z,13.31
2023-05-25T22:41:11.453Z,13.35
2023-05-25T22:46:13.242Z,13.34
2023-05-25T22:51:17.795Z,13.30
2023-05-25T22:56:19.504Z,13.24
2023-05-25T23:01:21.373Z,13.21
2023-05-25T23:06:23.198Z,13.18
2023-05-25T23:11:27.115Z,13.15
2023-05-25T23:16:29.507Z,13.10
2023-05-25T23:21:31.642Z,13.02
2023-05-25T23:26:33.686Z,12.95
2023-05-25T23:31:35.527Z,12.92
2023-05-25T23:36:37.339Z,12.93
2023-05-25T23:41:39.059Z,12.98
2023-05-25T23:46:41.865Z,13.03
2023-05-25T23:51:45.858Z,13.03
2023-05-25T23:56:49.544Z,12.98
